createdAt,value
2023-05-19T00:01:21.028Z,20.41
2023-05-19T00:03:54.099Z,20.41
2023-05-19T00:06:26.081Z,20.42
2023-05-19T00:08:57.811Z,20.37
2023-05-19T00:11:25.636Z,20.36
2023-05-19T00:13:53.487Z,20.40
2023-05-19T00:16:21.076Z,20.40
2023-05-19T00:18:48.554Z,20.37
2023-05-19T00:21:17.532Z,20.34
2023-05-19T00:23:44.638Z,20.36
2023-05-19T00:26:12.011Z,20.35
2023-05-19T00:28:39.387Z,20.22
2023-05-19T00:31:06.925Z,20.21
2023-05-19T00:33:34.583Z,20.21
2023-05-19T00:36:02.403Z,20.24
2023-05-19T00:38:31.908Z,20.27
2023-05-19T00:41:00.205Z,20.34
2023-05-19T00:43:28.091Z,20.31
2023-05-19T00:45:55.767Z,20.06
2023-05-19T00:48:23.093Z,20.01
2023-05-19T00:50:51.296Z,19.92
2023-05-19T00:53:18.883Z,19.91
2023-05-19T00:55:48.153Z,19.96
2023-05-19T00:58:16.521Z,20.03
2023-05-19T01:00:43.508Z,19.95
2023-05-19T01:03:11.333Z,19.92
2023-05-19T01:05:39.977Z,19.90
2023-05-19T01:08:07.292Z,19.88
2023-05-19T01:10:34.627Z,19.92
2023-05-19T01:13:05.384Z,19.93
2023-05-19T01:15:39.324Z,19.92
2023-05-19T01:18:14.109Z,19.88
2023-05-19T01:20:47.459Z,19.80
2023-05-19T01:23:41.730Z,19.81
2023-05-19T01:26:44.327Z,19.87
2023-05-19T01:29:29.340Z,19.85
2023-05-19T01:32:00.726Z,19.90
2023-05-19T01:34:28.003Z,19.92
2023-05-19T01:36:56.445Z,19.98
2023-05-19T01:39:25.818Z,19.94
2023-05-19T01:41:54.127Z,19.99
2023-05-19T01:44:22.975Z,19.89
2023-05-19T01:46:50.386Z,19.89
2023-05-19T01:49:19.318Z,19.92
2023-05-19T01:51:46.633Z,19.96
2023-05-19T01:54:14.079Z,20.09
2023-05-19T01:56:48.387Z,20.16
2023-05-19T01:59:29.659Z,20.12
2023-05-19T02:02:01.213Z,20.15
2023-05-19T02:04:43.140Z,20.07
2023-05-19T02:07:16.050Z,20.06
2023-05-19T02:09:53.679Z,20.06
2023-05-19T02:12:26.274Z,20.06
2023-05-19T02:15:03.988Z,19.99
2023-05-19T02:17:33.588Z,19.98
2023-05-19T02:20:02.808Z,19.90
2023-05-19T02:22:29.737Z,19.88
2023-05-19T02:24:57.380Z,19.93
2023-05-19T02:27:25.111Z,19.88
2023-05-19T02:29:52.934Z,19.87
2023-05-19T02:32:21.745Z,19.85
2023-05-19T02:34:50.751Z,19.81
2023-05-19T02:37:20.310Z,19.77
2023-05-19T02:39:48.004Z,19.76
2023-05-19T02:42:15.275Z,19.76
2023-05-19T02:44:42.655Z,19.66
2023-05-19T02:47:10.547Z,19.65
2023-05-19T02:49:38.194Z,19.62
2023-05-19T02:52:06.867Z,19.59
2023-05-19T02:54:35.961Z,19.70
2023-05-19T02:57:03.316Z,19.77
2023-05-19T02:59:30.733Z,19.86
2023-05-19T03:02:00.666Z,19.87
2023-05-19T03:04:28.687Z,19.82
2023-05-19T03:06:56.548Z,19.81
2023-05-19T03:09:23.406Z,19.62
2023-05-19T03:11:52.995Z,19.56
2023-05-19T03:14:20.866Z,19.54
2023-05-19T03:16:48.377Z,19.46
2023-05-19T03:19:15.694Z,19.46
2023-05-19T03:21:43.535Z,19.43
2023-05-19T03:24:10.626Z,19.43
2023-05-19T03:26:37.483Z,19.46
2023-05-19T03:29:06.567Z,19.38
2023-05-19T03:31:33.341Z,19.28
2023-05-19T03:34:02.763Z,19.24
2023-05-19T03:36:30.085Z,19.30
2023-05-19T03:38:57.370Z,19.33
2023-05-19T03:41:24.228Z,19.28
2023-05-19T03:43:51.679Z,19.21
2023-05-19T03:46:21.315Z,19.18
2023-05-19T03:48:48.907Z,19.23
2023-05-19T03:51:16.898Z,19.31
2023-05-19T03:53:44.342Z,19.50
2023-05-19T03:56:12.112Z,19.62
2023-05-19T03:58:40.180Z,19.45
2023-05-19T04:01:07.705Z,19.34
2023-05-19T04:03:36.917Z,19.54
2023-05-19T04:06:04.650Z,19.39
2023-05-19T04:08:31.960Z,19.22
2023-05-19T04:10:59.198Z,19.26
2023-05-19T04:13:26.477Z,19.23
2023-05-19T04:15:54.062Z,19.38
2023-05-19T04:18:21.256Z,19.34
2023-05-19T04:20:50.724Z,19.30
2023-05-19T04:23:17.916Z,19.23
2023-05-19T04:25:44.743Z,19.19
2023-05-19T04:28:11.808Z,19.16
2023-05-19T04:30:38.682Z,19.20
2023-05-19T04:33:05.953Z,19.35
2023-05-19T04:35:34.002Z,19.30
2023-05-19T04:38:02.522Z,19.15
2023-05-19T04:40:29.754Z,19.14
2023-05-19T04:42:57.119Z,19.31
2023-05-19T04:45:24.670Z,19.53
2023-05-19T04:47:52.053Z,19.69
2023-05-19T04:50:18.835Z,19.63
2023-05-19T04:52:46.427Z,19.57
2023-05-19T04:55:15.699Z,19.61
2023-05-19T04:57:43.463Z,19.79
2023-05-19T05:00:11.931Z,19.82
2023-05-19T05:02:39.617Z,19.81
2023-05-19T05:05:08.402Z,19.80
2023-05-19T05:07:35.972Z,19.80
2023-05-19T05:10:03.562Z,19.84
2023-05-19T05:12:33.608Z,20.05
2023-05-19T05:15:02.048Z,20.10
2023-05-19T05:17:30.299Z,20.08
2023-05-19T05:19:58.225Z,19.92
2023-05-19T05:22:25.832Z,19.92
2023-05-19T05:24:54.004Z,20.08
2023-05-19T05:27:21.136Z,20.13
2023-05-19T05:29:51.634Z,20.04
2023-05-19T05:32:19.185Z,20.04
2023-05-19T05:34:47.226Z,20.15
2023-05-19T05:37:16.032Z,20.11
2023-05-19T05:39:43.489Z,20.15
2023-05-19T05:42:11.262Z,20.05
2023-05-19T05:44:38.434Z,20.09
2023-05-19T05:47:08.761Z,20.16
2023-05-19T05:49:36.931Z,20.16
2023-05-19T05:52:06.779Z,20.17
2023-05-19T05:54:35.828Z,20.23
2023-05-19T05:57:03.720Z,20.34
2023-05-19T05:59:30.482Z,20.16
2023-05-19T06:01:58.152Z,20.08
2023-05-19T06:04:26.699Z,20.29
2023-05-19T06:06:54.582Z,20.39
2023-05-19T06:09:21.971Z,20.39
2023-05-19T06:11:49.161Z,20.42
2023-05-19T06:14:16.461Z,20.40
2023-05-19T06:16:43.738Z,20.45
2023-05-19T06:19:11.505Z,20.51
2023-05-19T06:21:40.836Z,20.51
2023-05-19T06:24:08.441Z,20.54
2023-05-19T06:26:35.824Z,20.41
2023-05-19T06:29:03.357Z,20.53
2023-05-19T06:31:30.181Z,20.45
2023-05-19T06:33:57.529Z,20.33
2023-05-19T06:36:25.195Z,20.21
2023-05-19T06:38:54.430Z,20.22
2023-05-19T06:41:21.640Z,20.30
2023-05-19T06:43:48.981Z,20.45
2023-05-19T06:46:16.314Z,20.55
2023-05-19T06:48:43.595Z,20.59
2023-05-19T06:51:10.863Z,20.53
2023-05-19T06:53:38.570Z,20.60
2023-05-19T06:56:08.332Z,20.59
2023-05-19T06:58:35.523Z,20.55
2023-05-19T07:01:02.827Z,20.50
2023-05-19T07:03:30.076Z,20.44
2023-05-19T07:05:57.346Z,20.41
2023-05-19T07:08:24.127Z,20.32
2023-05-19T07:10:51.684Z,20.37
2023-05-19T07:13:20.780Z,20.21
2023-05-19T07:15:48.416Z,20.22
2023-05-19T07:18:15.736Z,20.07
2023-05-19T07:20:42.932Z,20.20
2023-05-19T07:23:10.239Z,20.20
2023-05-19T07:25:37.527Z,20.15
2023-05-19T07:28:05.018Z,20.07
2023-05-19T07:30:34.830Z,20.04
2023-05-19T07:33:02.483Z,20.06
2023-05-19T07:35:29.904Z,20.12
2023-05-19T07:37:57.202Z,20.07
2023-05-19T07:40:23.928Z,20.17
2023-05-19T07:42:50.762Z,20.23
2023-05-19T07:45:17.611Z,20.23
2023-05-19T07:47:45.935Z,20.29
2023-05-19T07:50:12.726Z,20.22
2023-05-19T07:52:39.953Z,20.22
2023-05-19T07:55:07.239Z,20.32
2023-05-19T07:57:34.017Z,20.48
2023-05-19T08:00:00.900Z,20.68
2023-05-19T08:02:27.783Z,20.52
2023-05-19T08:04:56.189Z,20.30
2023-05-19T08:07:22.997Z,20.28
2023-05-19T08:09:49.818Z,20.25
2023-05-19T08:12:16.795Z,20.17
2023-05-19T08:14:43.839Z,20.21
2023-05-19T08:17:10.858Z,20.17
2023-05-19T08:19:37.886Z,20.03
2023-05-19T08:22:06.202Z,20.14
2023-05-19T08:24:33.001Z,20.11
2023-05-19T08:27:00.360Z,20.23
2023-05-19T08:29:27.137Z,20.25
2023-05-19T08:31:54.034Z,20.12
2023-05-19T08:34:20.959Z,20.07
2023-05-19T08:36:48.093Z,20.30
2023-05-19T08:39:16.437Z,20.26
2023-05-19T08:41:43.920Z,20.39
2023-05-19T08:44:10.748Z,20.55
2023-05-19T08:46:37.759Z,20.69
2023-05-19T08:49:11.547Z,20.67
2023-05-19T08:51:46.058Z,20.54
2023-05-19T08:54:16.432Z,20.52
2023-05-19T08:56:44.135Z,20.43
2023-05-19T08:59:12.200Z,20.37
2023-05-19T09:01:40.254Z,20.45
2023-05-19T09:04:07.260Z,20.45
2023-05-19T09:06:34.065Z,20.37
2023-05-19T09:09:01.010Z,20.58
2023-05-19T09:11:29.707Z,20.54
2023-05-19T09:13:56.742Z,20.53
2023-05-19T09:16:23.836Z,20.62
2023-05-19T09:18:54.563Z,20.52
2023-05-19T09:21:26.805Z,20.50
2023-05-19T09:23:54.620Z,20.70
2023-05-19T09:26:22.079Z,20.68
2023-05-19T09:28:50.560Z,20.80
2023-05-19T09:31:17.442Z,20.78
2023-05-19T09:33:45.781Z,20.60
2023-05-19T09:36:13.856Z,20.68
2023-05-19T09:38:40.837Z,20.73
2023-05-19T09:41:08.293Z,20.77
2023-05-19T09:43:36.157Z,20.91
2023-05-19T09:46:06.649Z,21.08
2023-05-19T09:48:33.846Z,20.95
2023-05-19T09:51:01.464Z,20.98
2023-05-19T09:53:30.183Z,21.18
2023-05-19T09:55:58.003Z,20.95
2023-05-19T09:58:25.775Z,21.12
2023-05-19T10:00:53.890Z,21.37
2023-05-19T10:03:29.894Z,21.53
2023-05-19T10:05:57.725Z,21.45
2023-05-19T10:08:28.252Z,21.42
2023-05-19T10:10:56.124Z,21.45
2023-05-19T10:13:24.393Z,21.46
2023-05-19T10:15:59.054Z,21.63
2023-05-19T10:18:28.260Z,21.53
2023-05-19T10:20:57.150Z,21.65
2023-05-19T10:23:23.929Z,21.56
2023-05-19T10:25:52.468Z,21.78
2023-05-19T10:28:23.040Z,21.82
2023-05-19T10:30:54.034Z,22.08
2023-05-19T10:33:26.358Z,22.05
2023-05-19T10:36:24.165Z,22.10
2023-05-19T10:38:56.613Z,22.07
2023-05-19T10:41:28.798Z,21.92
2023-05-19T10:44:08.871Z,21.97
2023-05-19T10:46:35.843Z,22.22
2023-05-19T10:49:03.028Z,22.24
2023-05-19T10:51:32.737Z,22.47
2023-05-19T10:54:03.462Z,22.77
2023-05-19T10:56:32.069Z,22.51
2023-05-19T10:58:59.205Z,22.57
2023-05-19T11:01:32.573Z,22.76
2023-05-19T11:04:05.760Z,22.86
2023-05-19T11:06:35.250Z,23.02
2023-05-19T11:09:12.450Z,23.33
2023-05-19T11:11:47.558Z,23.48
2023-05-19T11:14:17.691Z,23.59
2023-05-19T11:16:50.370Z,23.77
2023-05-19T11:19:28.332Z,23.63
2023-05-19T11:22:07.458Z,23.63
2023-05-19T11:24:36.859Z,23.61
2023-05-19T11:27:25.678Z,23.92
2023-05-19T11:29:53.114Z,24.40
2023-05-19T11:32:21.498Z,25.14
2023-05-19T11:34:49.429Z,25.27
2023-05-19T11:37:18.179Z,24.69
2023-05-19T11:39:47.035Z,24.74
2023-05-19T11:42:14.104Z,25.05
2023-05-19T11:44:41.071Z,25.40
2023-05-19T11:47:08.673Z,25.89
2023-05-19T11:49:36.647Z,26.05
2023-05-19T11:52:05.172Z,26.12
2023-05-19T11:54:34.759Z,26.24
2023-05-19T11:57:03.127Z,26.39
2023-05-19T11:59:32.750Z,26.50
2023-05-19T12:02:16.744Z,27.06
2023-05-19T12:04:44.503Z,27.56
2023-05-19T12:07:11.780Z,27.69
2023-05-19T12:09:40.964Z,26.77
2023-05-19T12:12:08.416Z,26.26
2023-05-19T12:14:35.542Z,26.47
2023-05-19T12:17:10.744Z,27.08
2023-05-19T12:19:38.334Z,27.61
2023-05-19T12:22:07.284Z,28.33
2023-05-19T12:24:34.675Z,28.76
2023-05-19T12:27:17.700Z,28.86
2023-05-19T12:29:50.336Z,28.64
2023-05-19T12:32:18.543Z,27.85
2023-05-19T12:34:46.019Z,27.36
2023-05-19T12:37:13.122Z,27.03
2023-05-19T12:39:40.113Z,26.20
2023-05-19T12:42:09.375Z,25.56
2023-05-19T12:44:39.146Z,25.07
2023-05-19T12:47:06.821Z,24.62
2023-05-19T12:49:34.385Z,24.27
2023-05-19T12:52:03.339Z,24.22
2023-05-19T12:54:33.913Z,24.15
2023-05-19T12:57:01.445Z,23.71
2023-05-19T12:59:38.309Z,23.36
2023-05-19T13:02:08.756Z,23.09
2023-05-19T13:04:36.589Z,23.34
2023-05-19T13:07:03.712Z,23.53
2023-05-19T13:09:31.383Z,23.35
2023-05-19T13:11:59.738Z,23.49
2023-05-19T13:14:27.072Z,23.34
2023-05-19T13:16:54.853Z,23.35
2023-05-19T13:19:25.994Z,23.48
2023-05-19T13:21:53.398Z,23.80
2023-05-19T13:24:20.692Z,23.92
2023-05-19T13:26:48.015Z,23.84
2023-05-19T13:29:16.405Z,23.98
2023-05-19T13:31:43.553Z,24.08
2023-05-19T13:34:10.625Z,23.97
2023-05-19T13:36:39.385Z,23.92
2023-05-19T13:39:06.151Z,23.80
2023-05-19T13:41:32.857Z,24.10
2023-05-19T13:44:02.343Z,23.95
2023-05-19T13:46:40.867Z,24.07
2023-05-19T13:49:12.324Z,24.17
2023-05-19T13:51:43.327Z,23.93
2023-05-19T13:54:10.484Z,24.14
2023-05-19T13:56:38.396Z,23.90
2023-05-19T13:59:06.058Z,23.87
2023-05-19T14:01:33.716Z,23.88
2023-05-19T14:04:01.992Z,23.98
2023-05-19T14:06:29.190Z,23.92
2023-05-19T14:08:58.085Z,24.08
2023-05-19T14:11:25.395Z,24.52
2023-05-19T14:13:53.266Z,24.70
2023-05-19T14:16:20.704Z,24.88
2023-05-19T14:18:48.046Z,24.52
2023-05-19T14:21:15.252Z,24.49
2023-05-19T14:23:42.096Z,24.28
2023-05-19T14:26:10.802Z,24.25
2023-05-19T14:28:37.715Z,24.56
2023-05-19T14:31:04.874Z,24.54
2023-05-19T14:33:35.009Z,24.96
2023-05-19T14:36:02.371Z,25.21
2023-05-19T14:38:29.900Z,25.61
2023-05-19T14:40:57.094Z,25.59
2023-05-19T14:43:25.649Z,25.72
2023-05-19T14:45:53.444Z,25.07
2023-05-19T14:48:20.251Z,24.81
2023-05-19T14:50:47.533Z,24.44
2023-05-19T14:53:14.347Z,24.63
2023-05-19T14:55:41.365Z,24.87
2023-05-19T14:58:23.580Z,25.38
2023-05-19T15:00:57.824Z,25.28
2023-05-19T15:03:24.678Z,24.99
2023-05-19T15:05:51.506Z,24.63
2023-05-19T15:08:18.457Z,24.46
2023-05-19T15:10:49.252Z,24.87
2023-05-19T15:13:16.498Z,24.94
2023-05-19T15:15:43.870Z,25.04
2023-05-19T15:18:13.639Z,24.67
2023-05-19T15:20:41.402Z,23.67
2023-05-19T15:23:08.830Z,23.87
2023-05-19T15:25:35.663Z,23.77
2023-05-19T15:28:02.433Z,23.94
2023-05-19T15:30:29.585Z,23.86
2023-05-19T15:32:56.351Z,23.55
2023-05-19T15:35:24.589Z,23.79
2023-05-19T15:37:51.553Z,23.62
2023-05-19T15:40:18.550Z,24.00
2023-05-19T15:42:45.686Z,23.75
2023-05-19T15:45:12.600Z,23.82
2023-05-19T15:47:39.347Z,23.73
2023-05-19T15:50:07.436Z,23.53
2023-05-19T15:52:35.529Z,23.41
2023-05-19T15:55:02.191Z,23.38
2023-05-19T15:57:28.997Z,23.40
2023-05-19T15:59:55.787Z,23.35
2023-05-19T16:02:22.789Z,23.02
2023-05-19T16:04:49.581Z,23.00
2023-05-19T16:07:16.351Z,22.93
2023-05-19T16:09:44.832Z,22.93
2023-05-19T16:12:12.001Z,23.16
2023-05-19T16:14:39.354Z,22.90
2023-05-19T16:17:06.759Z,22.83
2023-05-19T16:19:33.880Z,22.94
2023-05-19T16:22:01.459Z,22.92
2023-05-19T16:24:29.270Z,23.00
2023-05-19T16:26:57.692Z,22.91
2023-05-19T16:29:25.348Z,23.02
2023-05-19T16:31:52.232Z,22.97
2023-05-19T16:34:18.999Z,23.31
2023-05-19T16:36:45.890Z,23.21
2023-05-19T16:39:12.920Z,23.39
2023-05-19T16:41:39.755Z,23.52
2023-05-19T16:44:08.174Z,23.37
2023-05-19T16:46:35.091Z,23.07
2023-05-19T16:49:02.309Z,23.31
2023-05-19T16:51:29.362Z,23.70
2023-05-19T16:53:57.008Z,23.94
2023-05-19T16:56:24.144Z,23.64
2023-05-19T16:58:51.252Z,23.67
2023-05-19T17:01:19.701Z,23.76
2023-05-19T17:03:46.740Z,23.78
2023-05-19T17:06:13.508Z,23.83
2023-05-19T17:08:40.243Z,23.81
2023-05-19T17:11:07.050Z,23.67
2023-05-19T17:13:34.192Z,23.89
2023-05-19T17:16:00.992Z,23.57
2023-05-19T17:18:29.202Z,23.09
2023-05-19T17:20:56.331Z,23.21
2023-05-19T17:23:23.243Z,23.12
2023-05-19T17:25:54.504Z,22.93
2023-05-19T17:28:21.584Z,22.89
2023-05-19T17:30:48.649Z,22.62
2023-05-19T17:33:15.738Z,22.65
2023-05-19T17:35:44.668Z,22.79
2023-05-19T17:38:11.574Z,23.01
2023-05-19T17:40:40.022Z,23.06
2023-05-19T17:43:08.653Z,23.20
2023-05-19T17:45:35.506Z,23.13
2023-05-19T17:48:02.741Z,23.18
2023-05-19T17:50:29.579Z,23.21
2023-05-19T17:52:59.486Z,23.22
2023-05-19T17:55:27.570Z,23.05
2023-05-19T17:57:54.750Z,22.85
2023-05-19T18:00:22.661Z,23.00
2023-05-19T18:02:50.436Z,23.12
2023-05-19T18:05:18.048Z,22.72
2023-05-19T18:07:45.047Z,22.72
2023-05-19T18:10:15.431Z,22.89
2023-05-19T18:12:42.824Z,23.09
2023-05-19T18:15:11.975Z,23.00
2023-05-19T18:17:41.937Z,22.92
2023-05-19T18:20:09.615Z,23.02
2023-05-19T18:22:36.888Z,23.00
2023-05-19T18:25:04.778Z,23.08
2023-05-19T18:27:34.283Z,23.16
2023-05-19T18:30:01.672Z,23.21
2023-05-19T18:32:29.411Z,23.24
2023-05-19T18:34:57.136Z,23.37
2023-05-19T18:37:23.998Z,23.43
2023-05-19T18:39:50.872Z,23.39
2023-05-19T18:42:17.844Z,23.24
2023-05-19T18:44:46.296Z,23.29
2023-05-19T18:47:13.368Z,23.42
2023-05-19T18:49:41.161Z,23.37
2023-05-19T18:52:08.201Z,23.48
2023-05-19T18:54:35.054Z,23.27
2023-05-19T18:57:01.880Z,23.14
2023-05-19T18:59:28.881Z,23.13
2023-05-19T19:01:57.329Z,23.18
2023-05-19T19:04:24.337Z,23.22
2023-05-19T19:06:51.412Z,23.08
2023-05-19T19:09:18.475Z,23.21
2023-05-19T19:11:46.053Z,23.16
2023-05-19T19:14:13.250Z,23.10
2023-05-19T19:16:40.198Z,23.05
2023-05-19T19:19:08.739Z,22.90
2023-05-19T19:21:35.621Z,22.98
2023-05-19T19:24:02.559Z,22.90
2023-05-19T19:26:29.553Z,22.97
2023-05-19T19:28:56.694Z,22.87
2023-05-19T19:31:24.008Z,22.83
2023-05-19T19:33:50.797Z,22.97
2023-05-19T19:36:19.081Z,23.01
2023-05-19T19:38:45.869Z,23.01
2023-05-19T19:41:12.682Z,22.86
2023-05-19T19:43:40.326Z,22.84
2023-05-19T19:46:07.280Z,22.71
2023-05-19T19:48:34.410Z,22.61
2023-05-19T19:51:01.573Z,22.60
2023-05-19T19:53:30.140Z,22.60
2023-05-19T19:55:58.190Z,22.57
2023-05-19T19:58:25.770Z,22.37
2023-05-19T20:00:56.366Z,22.39
2023-05-19T20:03:24.384Z,22.38
2023-05-19T20:05:51.744Z,22.22
2023-05-19T20:08:18.581Z,22.13
2023-05-19T20:10:48.065Z,21.98
2023-05-19T20:13:15.382Z,21.82
2023-05-19T20:15:43.485Z,21.84
2023-05-19T20:18:11.124Z,21.94
2023-05-19T20:20:39.121Z,21.93
2023-05-19T20:23:06.224Z,21.89
2023-05-19T20:25:33.593Z,21.86
2023-05-19T20:28:02.962Z,21.78
2023-05-19T20:30:30.273Z,21.73
2023-05-19T20:32:58.222Z,21.59
2023-05-19T20:35:25.511Z,21.52
2023-05-19T20:37:53.241Z,21.43
2023-05-19T20:40:20.688Z,21.41
2023-05-19T20:42:48.039Z,21.20
2023-05-19T20:45:16.288Z,21.25
2023-05-19T20:47:44.044Z,21.17
2023-05-19T20:50:10.835Z,20.93
2023-05-19T20:52:38.473Z,20.85
2023-05-19T20:55:05.686Z,20.93
2023-05-19T20:57:32.833Z,21.01
2023-05-19T20:59:59.842Z,21.06
2023-05-19T21:02:28.347Z,21.00
2023-05-19T21:04:55.242Z,20.88
2023-05-19T21:07:22.091Z,20.80
2023-05-19T21:09:49.045Z,20.82
2023-05-19T21:12:16.657Z,20.70
2023-05-19T21:14:44.231Z,20.72
2023-05-19T21:17:12.606Z,20.81
2023-05-19T21:19:41.891Z,20.66
2023-05-19T21:22:08.784Z,20.66
2023-05-19T21:24:36.573Z,20.47
2023-05-19T21:27:04.177Z,20.61
2023-05-19T21:29:31.060Z,20.73
2023-05-19T21:31:59.054Z,20.74
2023-05-19T21:34:26.723Z,20.77
2023-05-19T21:36:55.929Z,20.62
2023-05-19T21:39:22.718Z,20.83
2023-05-19T21:41:50.165Z,20.75
2023-05-19T21:44:17.789Z,20.77
2023-05-19T21:46:45.446Z,20.67
2023-05-19T21:49:12.295Z,20.62
2023-05-19T21:51:39.479Z,20.79
2023-05-19T21:54:08.644Z,20.83
2023-05-19T21:56:36.086Z,20.92
2023-05-19T21:59:03.741Z,20.90
2023-05-19T22:03:57.121Z,20.88
2023-05-19T22:06:24.306Z,20.71
2023-05-19T22:08:51.150Z,20.87
2023-05-19T22:11:20.163Z,20.95
2023-05-19T22:13:47.141Z,20.88
2023-05-19T22:16:14.218Z,20.97
2023-05-19T22:18:41.023Z,20.90
2023-05-19T22:21:08.062Z,20.71
2023-05-19T22:23:35.519Z,20.89
2023-05-19T22:26:02.274Z,20.90
2023-05-19T22:28:31.430Z,20.79
2023-05-19T22:30:58.090Z,20.74
2023-05-19T22:33:24.727Z,20.66
2023-05-19T22:35:52.358Z,20.49
2023-05-19T22:38:19.989Z,20.48
2023-05-19T22:40:47.975Z,20.52
2023-05-19T22:43:16.083Z,20.54
2023-05-19T22:45:45.446Z,20.46
2023-05-19T22:48:12.812Z,20.44
2023-05-19T22:50:40.798Z,20.54
2023-05-19T22:53:08.375Z,20.40
2023-05-19T22:55:35.470Z,20.20
2023-05-19T22:58:03.051Z,19.94
2023-05-19T23:00:31.007Z,19.84
2023-05-19T23:03:00.648Z,19.79
2023-05-19T23:05:28.013Z,19.82
2023-05-19T23:07:55.344Z,19.99
2023-05-19T23:10:23.004Z,19.74
2023-05-19T23:12:50.257Z,19.71
2023-05-19T23:15:17.892Z,19.55
2023-05-19T23:17:46.193Z,19.47
2023-05-19T23:20:14.998Z,19.49
2023-05-19T23:22:43.318Z,19.45
2023-05-19T23:25:11.289Z,19.44
2023-05-19T23:27:38.984Z,19.38
2023-05-19T23:30:07.636Z,19.35
2023-05-19T23:32:35.250Z,19.57
2023-05-19T23:35:10.082Z,19.65
2023-05-19T23:37:39.860Z,19.60
2023-05-19T23:40:08.374Z,19.57
2023-05-19T23:42:37.503Z,19.56
2023-05-19T23:45:06.316Z,19.54
2023-05-19T23:47:33.952Z,19.69
2023-05-19T23:50:00.932Z,19.62
2023-05-19T23:52:28.097Z,19.58
2023-05-19T23:54:56.534Z,19.31
2023-05-19T23:57:23.340Z,19.21
2023-05-19T23:59:50.285Z,19.19
